createdAt,value
2019-04-03T00:01:10.215Z,12.35
2019-04-03T00:05:15.099Z,12.28
2019-04-03T00:09:20.134Z,12.24
2019-04-03T00:13:24.976Z,12.24
2019-04-03T00:17:29.871Z,12.22
2019-04-03T00:21:34.774Z,12.22
2019-04-03T00:25:39.710Z,12.20
2019-04-03T00:29:44.561Z,12.12
2019-04-03T00:33:49.462Z,12.07
2019-04-03T00:37:54.378Z,12.03
2019-04-03T00:41:59.251Z,11.95
2019-04-03T00:46:04.396Z,11.88
2019-04-03T00:50:09.357Z,11.81
2019-04-03T00:54:14.259Z,11.76
2019-04-03T00:58:40.460Z,11.71
2019-04-03T01:02:45.393Z,11.66
2019-04-03T01:06:50.250Z,11.56
2019-04-03T01:10:55.157Z,11.49
2019-04-03T01:15:01.689Z,11.43
2019-04-03T01:19:06.726Z,11.37
2019-04-03T01:23:12.760Z,11.37
2019-04-03T01:27:17.592Z,11.41
2019-04-03T01:31:22.497Z,11.48
2019-04-03T01:35:27.397Z,11.54
2019-04-03T01:39:32.328Z,11.53
2019-04-03T01:43:37.918Z,11.57
2019-04-03T01:47:42.727Z,11.57
2019-04-03T01:51:47.629Z,11.54
2019-04-03T01:55:52.528Z,11.51
2019-04-03T01:59:57.424Z,11.49
2019-04-03T02:04:02.328Z,11.46
2019-04-03T02:08:07.337Z,11.48
2019-04-03T02:12:12.204Z,11.43
2019-04-03T02:16:17.099Z,11.42
2019-04-03T02:20:22.347Z,11.43
2019-04-03T02:24:27.216Z,11.47
2019-04-03T02:28:34.158Z,11.50
2019-04-03T02:32:38.719Z,11.50
2019-04-03T02:36:44.993Z,11.48
2019-04-03T02:40:50.414Z,11.49
2019-04-03T02:44:55.359Z,11.46
2019-04-03T02:49:00.214Z,11.45
2019-04-03T02:53:06.850Z,11.45
2019-04-03T02:57:11.718Z,11.44
2019-04-03T03:01:16.616Z,11.42
2019-04-03T03:05:21.512Z,11.42
2019-04-03T03:09:26.541Z,11.37
2019-04-03T03:13:34.601Z,11.36
2019-04-03T03:17:39.678Z,11.34
2019-04-03T03:21:45.869Z,11.31
2019-04-03T03:25:51.629Z,11.28
2019-04-03T03:29:59.764Z,11.24
2019-04-03T03:34:06.530Z,11.18
2019-04-03T03:38:11.886Z,11.09
2019-04-03T03:42:16.789Z,11.05
2019-04-03T03:46:26.444Z,11.01
2019-04-03T03:50:32.493Z,10.96
2019-04-03T03:54:38.697Z,10.98
2019-04-03T03:58:45.660Z,10.93
2019-04-03T04:02:50.732Z,10.93
2019-04-03T04:06:55.993Z,10.94
2019-04-03T04:11:02.088Z,10.94
2019-04-03T04:15:07.861Z,10.96
2019-04-03T04:19:13.424Z,10.91
2019-04-03T04:23:18.681Z,10.84
2019-04-03T04:27:23.647Z,10.82
2019-04-03T04:31:28.541Z,10.81
2019-04-03T04:35:33.448Z,10.79
2019-04-03T04:39:38.638Z,10.74
2019-04-03T04:43:43.727Z,10.71
2019-04-03T04:47:48.638Z,10.68
2019-04-03T04:51:56.525Z,10.67
2019-04-03T04:56:00.150Z,10.62
2019-04-03T05:00:08.088Z,10.57
2019-04-03T05:04:15.101Z,10.54
2019-04-03T05:08:19.607Z,10.49
2019-04-03T05:12:24.585Z,10.44
2019-04-03T05:16:29.494Z,10.41
2019-04-03T05:20:34.657Z,10.36
2019-04-03T05:24:39.657Z,10.31
2019-04-03T05:28:54.565Z,10.31
2019-04-03T05:32:51.325Z,10.30
2019-04-03T05:36:56.234Z,10.29
2019-04-03T05:41:01.134Z,10.30
2019-04-03T05:45:07.178Z,10.37
2019-04-03T05:49:12.354Z,10.50
2019-04-03T05:53:17.530Z,10.75
2019-04-03T05:57:22.670Z,10.85
2019-04-03T06:01:27.813Z,10.89
2019-04-03T06:05:32.721Z,10.96
2019-04-03T06:09:37.820Z,11.04
2019-04-03T06:13:42.812Z,11.10
2019-04-03T06:17:50.178Z,11.17
2019-04-03T06:21:54.602Z,11.24
2019-04-03T06:26:01.804Z,11.23
2019-04-03T06:30:09.641Z,11.28
2019-04-03T06:34:14.528Z,11.35
2019-04-03T06:38:19.431Z,11.42
2019-04-03T06:42:24.342Z,11.47
2019-04-03T06:46:29.914Z,11.47
2019-04-03T06:50:35.399Z,11.55
2019-04-03T06:54:40.313Z,11.64
2019-04-03T06:58:45.222Z,11.60
2019-04-03T07:02:50.115Z,11.67
2019-04-03T07:06:56.240Z,11.82
2019-04-03T07:11:01.536Z,11.91
2019-04-03T07:15:07.744Z,11.89
2019-04-03T07:19:12.662Z,11.84
2019-04-03T07:23:17.565Z,11.81
2019-04-03T07:27:22.461Z,11.73
2019-04-03T07:31:28.494Z,11.64
2019-04-03T07:35:33.414Z,11.49
2019-04-03T07:39:38.375Z,11.42
2019-04-03T07:43:43.239Z,11.43
2019-04-03T07:47:48.134Z,11.56
2019-04-03T07:51:53.046Z,11.75
2019-04-03T07:55:57.943Z,11.78
2019-04-03T08:00:06.006Z,11.77
2019-04-03T08:04:09.593Z,11.71
2019-04-03T08:08:14.504Z,11.63
2019-04-03T08:12:19.662Z,11.64
2019-04-03T08:16:24.591Z,11.67
2019-04-03T08:20:31.369Z,11.71
2019-04-03T08:24:36.208Z,11.72
2019-04-03T08:28:41.076Z,11.77
2019-04-03T08:32:48.531Z,11.76
2019-04-03T08:36:52.582Z,11.78
2019-04-03T08:40:58.456Z,11.67
2019-04-03T08:45:05.771Z,11.69
2019-04-03T08:49:09.999Z,11.74
2019-04-03T08:53:14.898Z,11.72
2019-04-03T08:57:20.459Z,11.73
2019-04-03T09:01:26.855Z,11.88
2019-04-03T09:05:32.961Z,11.97
2019-04-03T09:09:37.907Z,11.94
2019-04-03T09:13:42.795Z,12.00
2019-04-03T09:17:48.091Z,12.01
2019-04-03T09:21:53.081Z,11.91
2019-04-03T09:25:57.940Z,11.81
2019-04-03T09:30:06.658Z,11.70
2019-04-03T09:34:11.536Z,11.68
2019-04-03T09:38:16.437Z,11.68
2019-04-03T09:42:21.818Z,11.64
2019-04-03T09:46:26.803Z,11.57
2019-04-03T09:50:31.689Z,11.53
2019-04-03T09:54:36.576Z,11.54
2019-04-03T09:58:41.467Z,11.52
2019-04-03T10:02:46.459Z,11.06
2019-04-03T10:06:51.333Z,10.38
2019-04-03T10:10:56.227Z,10.14
2019-04-03T10:15:01.141Z,10.00
2019-04-03T10:19:06.020Z,9.88
2019-04-03T10:23:10.945Z,9.75
2019-04-03T10:27:15.859Z,9.74
2019-04-03T10:31:23.511Z,9.69
2019-04-03T10:35:27.513Z,9.58
2019-04-03T10:39:32.438Z,9.59
2019-04-03T10:43:37.701Z,9.70
2019-04-03T10:47:44.605Z,9.77
2019-04-03T10:51:49.559Z,9.88
2019-04-03T10:55:55.963Z,9.83
2019-04-03T11:00:01.083Z,9.82
2019-04-03T11:04:07.264Z,9.85
2019-04-03T11:08:12.153Z,9.91
2019-04-03T11:12:17.113Z,9.91
2019-04-03T11:16:21.997Z,9.88
2019-04-03T11:20:26.889Z,9.94
2019-04-03T11:24:31.783Z,10.10
2019-04-03T11:28:37.859Z,10.30
2019-04-03T11:32:43.711Z,10.67
2019-04-03T11:36:48.722Z,10.87
2019-04-03T11:40:53.805Z,10.97
2019-04-03T11:44:58.706Z,11.34
2019-04-03T11:49:03.612Z,11.83
2019-04-03T11:53:08.518Z,11.91
2019-04-03T11:57:15.549Z,12.08
2019-04-03T12:01:20.011Z,12.16
2019-04-03T12:05:24.950Z,12.23
2019-04-03T12:09:31.644Z,12.06
2019-04-03T12:13:36.539Z,12.32
2019-04-03T12:17:41.414Z,12.45
2019-04-03T12:21:46.773Z,12.46
2019-04-03T12:25:52.898Z,12.51
2019-04-03T12:29:57.797Z,12.83
2019-04-03T12:34:05.358Z,13.19
2019-04-03T12:38:09.295Z,13.23
2019-04-03T12:42:16.629Z,13.26
2019-04-03T12:46:22.441Z,13.44
2019-04-03T12:50:28.582Z,13.29
2019-04-03T12:54:33.720Z,13.20
2019-04-03T12:58:38.628Z,13.30
2019-04-03T13:02:43.770Z,13.30
2019-04-03T13:06:48.831Z,13.24
2019-04-03T13:10:53.660Z,13.43
2019-04-03T13:14:58.554Z,13.62
2019-04-03T13:19:03.726Z,13.48
2019-04-03T13:23:08.584Z,13.44
2019-04-03T13:27:13.483Z,13.31
2019-04-03T13:31:18.384Z,13.12
2019-04-03T13:35:23.277Z,13.13
2019-04-03T13:39:28.193Z,13.44
2019-04-03T13:43:33.067Z,13.70
2019-04-03T13:47:41.351Z,13.88
2019-04-03T13:51:45.253Z,13.97
2019-04-03T13:55:50.328Z,13.89
2019-04-03T13:59:59.790Z,13.66
2019-04-03T14:04:01.816Z,13.44
2019-04-03T14:08:07.461Z,13.28
2019-04-03T14:12:12.799Z,13.16
2019-04-03T14:16:21.504Z,12.97
2019-04-03T14:20:25.867Z,12.78
2019-04-03T14:24:39.762Z,12.63
2019-04-03T14:28:37.459Z,12.68
2019-04-03T14:32:45.008Z,12.82
2019-04-03T14:36:50.130Z,12.93
2019-04-03T14:40:55.540Z,12.86
2019-04-03T14:45:00.431Z,12.81
2019-04-03T14:49:05.334Z,12.81
2019-04-03T14:53:10.606Z,12.86
2019-04-03T14:57:20.729Z,12.88
2019-04-03T15:01:22.100Z,12.80
2019-04-03T15:05:26.985Z,12.70
2019-04-03T15:09:32.054Z,12.64
2019-04-03T15:13:37.067Z,12.58
2019-04-03T15:17:41.978Z,12.73
2019-04-03T15:21:46.971Z,12.76
2019-04-03T15:25:53.326Z,12.55
2019-04-03T15:29:58.818Z,12.34
2019-04-03T15:34:03.989Z,12.11
2019-04-03T15:38:08.830Z,11.89
2019-04-03T15:42:13.725Z,11.73
2019-04-03T15:46:18.751Z,11.53
2019-04-03T15:50:23.596Z,11.43
2019-04-03T15:54:31.494Z,11.30
2019-04-03T15:58:35.232Z,11.05
2019-04-03T16:02:40.458Z,10.92
2019-04-03T16:06:45.300Z,10.82
2019-04-03T16:10:50.665Z,10.65
2019-04-03T16:14:55.568Z,10.48
2019-04-03T16:19:00.535Z,10.35
2019-04-03T16:23:05.827Z,10.15
2019-04-03T16:27:10.728Z,9.98
2019-04-03T16:31:16.011Z,9.95
2019-04-03T16:35:20.968Z,9.91
2019-04-03T16:39:25.854Z,9.84
2019-04-03T16:43:31.000Z,9.66
2019-04-03T16:47:35.906Z,9.55
2019-04-03T16:51:41.261Z,9.45
2019-04-03T16:55:46.691Z,9.37
2019-04-03T16:59:53.402Z,9.26
2019-04-03T17:03:58.647Z,9.15
2019-04-03T17:08:03.725Z,9.18
2019-04-03T17:12:08.625Z,9.29
2019-04-03T17:16:14.735Z,9.32
2019-04-03T17:20:22.366Z,9.27
2019-04-03T17:24:26.958Z,9.27
2019-04-03T17:28:31.822Z,9.27
2019-04-03T17:32:36.697Z,9.27
2019-04-03T17:36:41.991Z,9.22
2019-04-03T17:40:46.954Z,9.26
2019-04-03T17:44:51.852Z,9.22
2019-04-03T17:48:56.744Z,9.12
2019-04-03T17:53:01.624Z,9.03
2019-04-03T17:57:06.523Z,8.96
2019-04-03T18:01:11.407Z,8.87
2019-04-03T18:05:18.135Z,8.86
2019-04-03T18:09:23.029Z,8.87
2019-04-03T18:13:27.911Z,8.82
2019-04-03T18:17:32.806Z,8.78
2019-04-03T18:21:37.694Z,8.80
2019-04-03T18:25:43.819Z,8.76
2019-04-03T18:29:48.707Z,8.70
2019-04-03T18:33:53.594Z,8.87
2019-04-03T18:37:58.479Z,8.88
2019-04-03T18:42:03.405Z,8.81
2019-04-03T18:46:08.259Z,8.69
2019-04-03T18:50:14.185Z,8.60
2019-04-03T18:54:19.078Z,8.51
2019-04-03T18:58:24.394Z,8.52
2019-04-03T19:02:29.347Z,8.48
2019-04-03T19:06:34.475Z,8.39
2019-04-03T19:10:39.362Z,8.33
2019-04-03T19:14:44.267Z,8.37
2019-04-03T19:18:49.281Z,8.46
2019-04-03T19:23:02.559Z,8.44
2019-04-03T19:27:02.154Z,8.26
2019-04-03T19:31:08.852Z,8.16
2019-04-03T19:35:14.032Z,8.12
2019-04-03T19:39:18.912Z,8.07
2019-04-03T19:43:23.793Z,8.09
2019-04-03T19:47:28.687Z,8.17
2019-04-03T19:51:33.580Z,8.24
2019-04-03T19:55:38.476Z,8.23
2019-04-03T19:59:43.354Z,8.22
2019-04-03T20:03:48.244Z,8.22
2019-04-03T20:07:53.138Z,8.03
2019-04-03T20:11:58.022Z,7.93
2019-04-03T20:16:02.920Z,7.84
2019-04-03T20:20:08.539Z,7.90
2019-04-03T20:24:13.456Z,7.84
2019-04-03T20:28:18.678Z,7.92
2019-04-03T20:32:23.830Z,8.00
2019-04-03T20:36:28.722Z,8.04
2019-04-03T20:40:33.600Z,8.00
2019-04-03T20:44:38.978Z,8.05
2019-04-03T20:48:44.061Z,8.04
2019-04-03T20:52:48.953Z,8.04
2019-04-03T20:56:57.883Z,8.00
2019-04-03T21:01:06.807Z,8.04
2019-04-03T21:05:07.898Z,8.04
2019-04-03T21:09:12.956Z,7.96
2019-04-03T21:13:17.846Z,7.54
2019-04-03T21:17:24.088Z,7.18
2019-04-03T21:21:29.058Z,7.08
2019-04-03T21:25:36.122Z,7.28
2019-04-03T21:29:41.161Z,7.43
2019-04-03T21:33:46.127Z,7.51
2019-04-03T21:37:50.970Z,7.54
2019-04-03T21:41:56.500Z,7.53
2019-04-03T21:46:01.414Z,7.48
2019-04-03T21:50:06.954Z,7.44
2019-04-03T21:54:11.857Z,7.51
2019-04-03T21:58:16.740Z,7.54
2019-04-03T22:02:21.900Z,7.65
2019-04-03T22:06:27.735Z,7.69
2019-04-03T22:10:33.552Z,7.59
2019-04-03T22:14:38.514Z,7.47
2019-04-03T22:18:43.400Z,7.35
2019-04-03T22:22:48.298Z,7.44
2019-04-03T22:26:53.174Z,7.47
2019-04-03T22:30:58.062Z,7.51
2019-04-03T22:35:05.381Z,7.59
2019-04-03T22:39:10.322Z,7.67
2019-04-03T22:43:16.133Z,7.78
2019-04-03T22:47:21.155Z,7.78
2019-04-03T22:51:26.039Z,7.76
2019-04-03T22:55:30.930Z,7.73
2019-04-03T22:59:35.819Z,7.66
2019-04-03T23:03:40.725Z,7.66
2019-04-03T23:07:45.589Z,7.66
2019-04-03T23:11:51.448Z,7.66
2019-04-03T23:15:56.339Z,7.61
2019-04-03T23:20:01.236Z,7.63
2019-04-03T23:24:06.131Z,7.74
2019-04-03T23:28:11.011Z,7.76
2019-04-03T23:32:16.128Z,7.69
2019-04-03T23:36:22.981Z,7.67
2019-04-03T23:40:27.676Z,7.69
2019-04-03T23:44:32.564Z,7.73
2019-04-03T23:48:37.447Z,7.71
2019-04-03T23:52:42.358Z,7.66
2019-04-03T23:56:47.225Z,7.65
